sensor_id;sensor_type;location;lat;lon;timestamp;pressure;altitude;pressure_sealevel;temperature;humidity
11440;BME280;5776;51.814;4.510;2023-06-14T00:02:11;101564.00;;;20.82;60.86
11440;BME280;5776;51.814;4.510;2023-06-14T00:04:37;101562.38;;;20.81;61.44
11440;BME280;5776;51.814;4.510;2023-06-14T00:07:05;101570.53;;;20.78;61.33
11440;BME280;5776;51.814;4.510;2023-06-14T00:09:33;101566.50;;;20.75;61.29
11440;BME280;5776;51.814;4.510;2023-06-14T00:12:00;101569.97;;;20.72;61.25
11440;BME280;5776;51.814;4.510;2023-06-14T00:14:26;101566.72;;;20.70;62.39
11440;BME280;5776;51.814;4.510;2023-06-14T00:16:52;101568.22;;;20.67;62.20
11440;BME280;5776;51.814;4.510;2023-06-14T00:19:24;101565.78;;;20.66;62.06
11440;BME280;5776;51.814;4.510;2023-06-14T00:21:51;101572.78;;;20.63;61.89
11440;BME280;5776;51.814;4.510;2023-06-14T00:24:19;101573.13;;;20.62;62.03
11440;BME280;5776;51.814;4.510;2023-06-14T00:26:45;101574.94;;;20.58;62.50
11440;BME280;5776;51.814;4.510;2023-06-14T00:29:11;101570.13;;;20.55;62.72
11440;BME280;5776;51.814;4.510;2023-06-14T00:31:37;101566.84;;;20.53;62.61
11440;BME280;5776;51.814;4.510;2023-06-14T00:34:03;101566.72;;;20.49;63.23
11440;BME280;5776;51.814;4.510;2023-06-14T00:36:29;101568.19;;;20.46;63.56
11440;BME280;5776;51.814;4.510;2023-06-14T00:38:55;101564.97;;;20.44;63.35
11440;BME280;5776;51.814;4.510;2023-06-14T00:41:21;101570.03;;;20.42;63.65
11440;BME280;5776;51.814;4.510;2023-06-14T00:43:46;101577.81;;;20.40;63.48
11440;BME280;5776;51.814;4.510;2023-06-14T00:46:12;101573.78;;;20.38;63.49
11440;BME280;5776;51.814;4.510;2023-06-14T00:48:39;101569.75;;;20.35;64.01
11440;BME280;5776;51.814;4.510;2023-06-14T00:51:06;101574.78;;;20.33;64.02
11440;BME280;5776;51.814;4.510;2023-06-14T00:53:32;101577.44;;;20.29;64.32
11440;BME280;5776;51.814;4.510;2023-06-14T00:56:01;101571.75;;;20.26;64.61
11440;BME280;5776;51.814;4.510;2023-06-14T00:58:27;101569.69;;;20.23;64.73
11440;BME280;5776;51.814;4.510;2023-06-14T01:00:54;101570.00;;;20.21;64.81
11440;BME280;5776;51.814;4.510;2023-06-14T01:03:20;101570.69;;;20.18;64.76
11440;BME280;5776;51.814;4.510;2023-06-14T01:05:53;101567.44;;;20.16;64.60
11440;BME280;5776;51.814;4.510;2023-06-14T01:14:16;101564.75;;;20.07;65.49
11440;BME280;5776;51.814;4.510;2023-06-14T01:16:43;101571.75;;;20.05;66.09
11440;BME280;5776;51.814;4.510;2023-06-14T01:19:12;101569.31;;;20.03;65.84
11440;BME280;5776;51.814;4.510;2023-06-14T01:21:39;101568.41;;;19.99;66.21
11440;BME280;5776;51.814;4.510;2023-06-14T01:24:10;101568.59;;;19.94;66.89
11440;BME280;5776;51.814;4.510;2023-06-14T01:26:38;101565.69;;;19.91;66.87
11440;BME280;5776;51.814;4.510;2023-06-14T01:29:05;101560.16;;;19.91;66.63
11440;BME280;5776;51.814;4.510;2023-06-14T01:31:32;101562.78;;;19.87;67.23
11440;BME280;5776;51.814;4.510;2023-06-14T01:34:07;101563.13;;;19.85;67.02
11440;BME280;5776;51.814;4.510;2023-06-14T01:36:35;101565.38;;;19.83;67.19
11440;BME280;5776;51.814;4.510;2023-06-14T01:39:03;101568.50;;;19.82;67.40
11440;BME280;5776;51.814;4.510;2023-06-14T01:41:31;101561.69;;;19.79;66.70
11440;BME280;5776;51.814;4.510;2023-06-14T01:43:58;101562.38;;;19.76;67.22
11440;BME280;5776;51.814;4.510;2023-06-14T01:46:25;101560.75;;;19.75;67.19
11440;BME280;5776;51.814;4.510;2023-06-14T01:48:50;101558.66;;;19.72;67.64
11440;BME280;5776;51.814;4.510;2023-06-14T01:51:16;101550.72;;;19.71;67.37
11440;BME280;5776;51.814;4.510;2023-06-14T01:53:42;101556.91;;;19.68;67.34
11440;BME280;5776;51.814;4.510;2023-06-14T01:56:08;101560.78;;;19.67;67.18
11440;BME280;5776;51.814;4.510;2023-06-14T01:58:34;101561.41;;;19.63;67.21
11440;BME280;5776;51.814;4.510;2023-06-14T02:01:00;101555.47;;;19.61;67.55
11440;BME280;5776;51.814;4.510;2023-06-14T02:03:26;101556.94;;;19.59;67.72
11440;BME280;5776;51.814;4.510;2023-06-14T02:05:52;101560.00;;;19.57;67.08
11440;BME280;5776;51.814;4.510;2023-06-14T02:08:18;101563.44;;;19.54;67.42
11440;BME280;5776;51.814;4.510;2023-06-14T02:10:44;101564.91;;;19.52;67.61
11440;BME280;5776;51.814;4.510;2023-06-14T02:13:10;101569.59;;;19.51;67.63
11440;BME280;5776;51.814;4.510;2023-06-14T02:15:37;101566.69;;;19.48;67.98
11440;BME280;5776;51.814;4.510;2023-06-14T02:18:03;101562.66;;;19.45;67.51
11440;BME280;5776;51.814;4.510;2023-06-14T02:20:30;101559.75;;;19.41;67.38
11440;BME280;5776;51.814;4.510;2023-06-14T02:22:56;101556.53;;;19.39;67.29
11440;BME280;5776;51.814;4.510;2023-06-14T02:25:22;101561.53;;;19.37;67.58
11440;BME280;5776;51.814;4.510;2023-06-14T02:27:48;101558.31;;;19.35;67.50
11440;BME280;5776;51.814;4.510;2023-06-14T02:30:14;101569.69;;;19.34;67.22
11440;BME280;5776;51.814;4.510;2023-06-14T02:32:41;101570.31;;;19.31;67.45
11440;BME280;5776;51.814;4.510;2023-06-14T02:35:08;101571.78;;;19.28;67.55
11440;BME280;5776;51.814;4.510;2023-06-14T02:37:34;101574.88;;;19.27;67.47
11440;BME280;5776;51.814;4.510;2023-06-14T02:40:00;101573.91;;;19.23;68.14
11440;BME280;5776;51.814;4.510;2023-06-14T02:42:26;101578.13;;;19.20;68.37
11440;BME280;5776;51.814;4.510;2023-06-14T02:44:52;101570.19;;;19.18;67.89
11440;BME280;5776;51.814;4.510;2023-06-14T02:47:18;101575.25;;;19.16;68.13
11440;BME280;5776;51.814;4.510;2023-06-14T02:49:44;101566.50;;;19.14;68.13
11440;BME280;5776;51.814;4.510;2023-06-14T02:52:12;101578.16;;;19.11;68.54
11440;BME280;5776;51.814;4.510;2023-06-14T02:54:38;101573.28;;;19.08;68.70
11440;BME280;5776;51.814;4.510;2023-06-14T02:57:04;101581.09;;;19.06;68.86
11440;BME280;5776;51.814;4.510;2023-06-14T02:59:32;101579.81;;;19.04;69.13
11440;BME280;5776;51.814;4.510;2023-06-14T03:01:58;101580.78;;;18.99;69.28
11440;BME280;5776;51.814;4.510;2023-06-14T03:04:24;101583.84;;;18.97;69.30
11440;BME280;5776;51.814;4.510;2023-06-14T03:06:52;101584.50;;;18.94;69.45
11440;BME280;5776;51.814;4.510;2023-06-14T03:09:19;101577.38;;;18.93;69.28
11440;BME280;5776;51.814;4.510;2023-06-14T03:11:45;101583.53;;;18.90;68.94
11440;BME280;5776;51.814;4.510;2023-06-14T03:14:11;101591.66;;;18.87;69.44
11440;BME280;5776;51.814;4.510;2023-06-14T03:16:39;101591.97;;;18.85;69.62
11440;BME280;5776;51.814;4.510;2023-06-14T03:19:06;101592.31;;;18.84;69.46
11440;BME280;5776;51.814;4.510;2023-06-14T03:21:32;101590.19;;;18.81;69.65
11440;BME280;5776;51.814;4.510;2023-06-14T03:24:00;101597.97;;;18.78;69.79
11440;BME280;5776;51.814;4.510;2023-06-14T03:26:26;101601.84;;;18.77;69.63
11440;BME280;5776;51.814;4.510;2023-06-14T03:28:53;101604.09;;;18.75;69.85
11440;BME280;5776;51.814;4.510;2023-06-14T03:31:19;101604.25;;;18.70;70.08
11440;BME280;5776;51.814;4.510;2023-06-14T03:33:45;101601.00;;;18.68;69.74
11440;BME280;5776;51.814;4.510;2023-06-14T03:36:10;101606.03;;;18.66;70.29
11440;BME280;5776;51.814;4.510;2023-06-14T03:38:36;101612.50;;;18.62;69.87
11440;BME280;5776;51.814;4.510;2023-06-14T03:41:02;101610.41;;;18.59;69.63
11440;BME280;5776;51.814;4.510;2023-06-14T03:43:28;101615.09;;;18.58;69.64
11440;BME280;5776;51.814;4.510;2023-06-14T03:45:55;101616.53;;;18.55;69.92
11440;BME280;5776;51.814;4.510;2023-06-14T03:48:22;101613.78;;;18.55;70.06
11440;BME280;5776;51.814;4.510;2023-06-14T03:50:48;101615.25;;;18.53;70.13
11440;BME280;5776;51.814;4.510;2023-06-14T03:53:14;101617.19;;;18.52;69.99
11440;BME280;5776;51.814;4.510;2023-06-14T03:55:40;101616.38;;;18.52;70.43
11440;BME280;5776;51.814;4.510;2023-06-14T03:58:06;101617.53;;;18.51;70.36
11440;BME280;5776;51.814;4.510;2023-06-14T04:00:32;101620.09;;;18.47;70.41
11440;BME280;5776;51.814;4.510;2023-06-14T04:02:58;101615.41;;;18.48;70.71
11440;BME280;5776;51.814;4.510;2023-06-14T04:05:24;101620.09;;;18.47;70.73
11440;BME280;5776;51.814;4.510;2023-06-14T04:07:52;101622.38;;;18.45;70.91
11440;BME280;5776;51.814;4.510;2023-06-14T04:10:21;101629.81;;;18.45;70.87
11440;BME280;5776;51.814;4.510;2023-06-14T04:12:47;101630.97;;;18.44;71.14
11440;BME280;5776;51.814;4.510;2023-06-14T04:15:13;101634.50;;;18.44;70.83
11440;BME280;5776;51.814;4.510;2023-06-14T04:17:39;101637.91;;;18.41;71.50
11440;BME280;5776;51.814;4.510;2023-06-14T04:20:06;101632.41;;;18.41;71.63
11440;BME280;5776;51.814;4.510;2023-06-14T04:22:35;101636.28;;;18.40;71.20
11440;BME280;5776;51.814;4.510;2023-06-14T04:25:02;101639.81;;;18.41;71.94
11440;BME280;5776;51.814;4.510;2023-06-14T04:27:29;101640.97;;;18.40;72.26
11440;BME280;5776;51.814;4.510;2023-06-14T04:29:57;101635.78;;;18.38;72.70
11440;BME280;5776;51.814;4.510;2023-06-14T04:32:26;101634.97;;;18.38;72.49
11440;BME280;5776;51.814;4.510;2023-06-14T04:34:53;101638.06;;;18.36;72.11
11440;BME280;5776;51.814;4.510;2023-06-14T04:37:20;101638.06;;;18.36;72.83
11440;BME280;5776;51.814;4.510;2023-06-14T04:39:47;101637.22;;;18.35;73.05
11440;BME280;5776;51.814;4.510;2023-06-14T04:42:14;101634.47;;;18.35;72.66
11440;BME280;5776;51.814;4.510;2023-06-14T04:44:43;101633.69;;;18.35;72.90
11440;BME280;5776;51.814;4.510;2023-06-14T04:47:10;101635.94;;;18.33;72.98
11440;BME280;5776;51.814;4.510;2023-06-14T04:49:38;101632.88;;;18.34;72.94
11440;BME280;5776;51.814;4.510;2023-06-14T04:52:06;101642.28;;;18.33;73.50
11440;BME280;5776;51.814;4.510;2023-06-14T04:54:32;101642.28;;;18.33;73.12
11440;BME280;5776;51.814;4.510;2023-06-14T04:56:59;101643.88;;;18.34;73.08
11440;BME280;5776;51.814;4.510;2023-06-14T04:59:25;101652.94;;;18.35;72.68
11440;BME280;5776;51.814;4.510;2023-06-14T05:01:51;101643.72;;;18.40;72.33
11440;BME280;5776;51.814;4.510;2023-06-14T05:04:19;101647.78;;;18.51;72.15
11440;BME280;5776;51.814;4.510;2023-06-14T05:06:45;101649.56;;;18.55;72.73
11440;BME280;5776;51.814;4.510;2023-06-14T05:09:14;101652.78;;;18.57;72.81
11440;BME280;5776;51.814;4.510;2023-06-14T05:11:40;101656.34;;;18.58;73.36
11440;BME280;5776;51.814;4.510;2023-06-14T05:14:11;101654.09;;;18.60;73.85
11440;BME280;5776;51.814;4.510;2023-06-14T05:16:37;101654.09;;;18.60;73.66
11440;BME280;5776;51.814;4.510;2023-06-14T05:19:05;101655.22;;;18.59;72.82
11440;BME280;5776;51.814;4.510;2023-06-14T05:21:31;101662.19;;;18.56;72.74
11440;BME280;5776;51.814;4.510;2023-06-14T05:23:59;101668.81;;;18.55;71.45
11440;BME280;5776;51.814;4.510;2023-06-14T05:26:25;101672.38;;;18.56;73.14
11440;BME280;5776;51.814;4.510;2023-06-14T05:28:57;101664.59;;;18.58;72.90
11440;BME280;5776;51.814;4.510;2023-06-14T05:31:27;101665.91;;;18.61;73.13
11440;BME280;5776;51.814;4.510;2023-06-14T05:33:54;101663.00;;;18.66;73.27
11440;BME280;5776;51.814;4.510;2023-06-14T05:36:20;101668.19;;;18.67;72.71
11440;BME280;5776;51.814;4.510;2023-06-14T05:38:50;101673.84;;;18.71;73.09
11440;BME280;5776;51.814;4.510;2023-06-14T05:41:16;101672.41;;;18.73;73.03
11440;BME280;5776;51.814;4.510;2023-06-14T05:43:42;101671.78;;;18.76;73.10
11440;BME280;5776;51.814;4.510;2023-06-14T05:46:08;101669.31;;;18.75;72.94
11440;BME280;5776;51.814;4.510;2023-06-14T05:48:34;101679.88;;;18.82;72.59
11440;BME280;5776;51.814;4.510;2023-06-14T05:51:00;101667.06;;;18.86;72.89
11440;BME280;5776;51.814;4.510;2023-06-14T05:53:26;101674.69;;;18.89;71.92
11440;BME280;5776;51.814;4.510;2023-06-14T05:55:52;101672.41;;;18.91;72.16
11440;BME280;5776;51.814;4.510;2023-06-14T05:58:21;101671.78;;;18.94;71.73
11440;BME280;5776;51.814;4.510;2023-06-14T06:00:47;101676.63;;;18.97;71.99
11440;BME280;5776;51.814;4.510;2023-06-14T06:03:13;101673.88;;;18.97;72.00
11440;BME280;5776;51.814;4.510;2023-06-14T06:05:39;101678.41;;;19.02;72.03
11440;BME280;5776;51.814;4.510;2023-06-14T06:08:05;101675.31;;;19.03;71.58
11440;BME280;5776;51.814;4.510;2023-06-14T06:10:31;101671.94;;;19.06;71.72
11440;BME280;5776;51.814;4.510;2023-06-14T06:12:57;101685.84;;;19.10;71.56
11440;BME280;5776;51.814;4.510;2023-06-14T06:15:23;101674.53;;;19.11;71.30
11440;BME280;5776;51.814;4.510;2023-06-14T06:17:49;101684.88;;;19.14;71.25
11440;BME280;5776;51.814;4.510;2023-06-14T06:20:16;101680.66;;;19.17;71.24
11440;BME280;5776;51.814;4.510;2023-06-14T06:22:43;101676.75;;;19.18;71.24
11440;BME280;5776;51.814;4.510;2023-06-14T06:25:08;101687.13;;;19.21;71.37
11440;BME280;5776;51.814;4.510;2023-06-14T06:27:34;101680.19;;;19.24;71.03
11440;BME280;5776;51.814;4.510;2023-06-14T06:30:03;101679.84;;;19.25;71.20
11440;BME280;5776;51.814;4.510;2023-06-14T06:32:30;101682.75;;;19.29;71.20
11440;BME280;5776;51.814;4.510;2023-06-14T06:34:56;101691.47;;;19.31;71.07
11440;BME280;5776;51.814;4.510;2023-06-14T06:37:22;101691.97;;;19.33;70.77
11440;BME280;5776;51.814;4.510;2023-06-14T06:39:47;101690.84;;;19.34;70.80
11440;BME280;5776;51.814;4.510;2023-06-14T06:42:13;101698.44;;;19.37;71.23
11440;BME280;5776;51.814;4.510;2023-06-14T06:44:39;101689.53;;;19.40;70.87
11440;BME280;5776;51.814;4.510;2023-06-14T06:47:05;101697.94;;;19.43;70.75
11440;BME280;5776;51.814;4.510;2023-06-14T06:49:31;101701.66;;;19.48;70.49
11440;BME280;5776;51.814;4.510;2023-06-14T06:52:06;101699.41;;;19.50;70.47
11440;BME280;5776;51.814;4.510;2023-06-14T06:54:33;101708.16;;;19.52;70.64
11440;BME280;5776;51.814;4.510;2023-06-14T06:56:59;101716.06;;;19.53;70.62
11440;BME280;5776;51.814;4.510;2023-06-14T06:59:27;101711.03;;;19.55;70.76
11440;BME280;5776;51.814;4.510;2023-06-14T07:01:53;101707.63;;;19.58;70.65
11440;BME280;5776;51.814;4.510;2023-06-14T07:04:18;101714.44;;;19.61;70.78
11440;BME280;5776;51.814;4.510;2023-06-14T07:06:45;101721.22;;;19.63;70.88
11440;BME280;5776;51.814;4.510;2023-06-14T07:09:12;101722.50;;;19.66;70.22
11440;BME280;5776;51.814;4.510;2023-06-14T07:11:41;101724.66;;;19.69;70.85
11440;BME280;5776;51.814;4.510;2023-06-14T07:14:07;101732.59;;;19.71;70.48
11440;BME280;5776;51.814;4.510;2023-06-14T07:16:33;101732.75;;;19.74;70.42
11440;BME280;5776;51.814;4.510;2023-06-14T07:18:59;101736.81;;;19.77;71.15
11440;BME280;5776;51.814;4.510;2023-06-14T07:21:25;101736.94;;;19.80;70.62
11440;BME280;5776;51.814;4.510;2023-06-14T07:23:55;101728.34;;;19.82;70.88
11440;BME280;5776;51.814;4.510;2023-06-14T07:26:22;101730.44;;;19.85;70.87
11440;BME280;5776;51.814;4.510;2023-06-14T07:28:48;101733.69;;;19.87;70.42
11440;BME280;5776;51.814;4.510;2023-06-14T07:31:15;101731.06;;;19.91;70.29
11440;BME280;5776;51.814;4.510;2023-06-14T07:33:42;101728.00;;;19.92;70.83
11440;BME280;5776;51.814;4.510;2023-06-14T07:36:08;101738.34;;;19.95;70.30
11440;BME280;5776;51.814;4.510;2023-06-14T07:38:34;101741.59;;;19.97;70.41
11440;BME280;5776;51.814;4.510;2023-06-14T07:41:00;101742.56;;;20.01;70.71
11440;BME280;5776;51.814;4.510;2023-06-14T07:43:26;101743.50;;;20.05;70.20
11440;BME280;5776;51.814;4.510;2023-06-14T07:45:52;101740.44;;;20.07;70.19
11440;BME280;5776;51.814;4.510;2023-06-14T07:48:18;101745.28;;;20.10;70.43
11440;BME280;5776;51.814;4.510;2023-06-14T07:50:44;101739.09;;;20.13;70.68
11440;BME280;5776;51.814;4.510;2023-06-14T07:53:10;101744.75;;;20.17;70.00
11440;BME280;5776;51.814;4.510;2023-06-14T07:55:36;101744.09;;;20.20;70.24
11440;BME280;5776;51.814;4.510;2023-06-14T07:58:09;101744.22;;;20.23;70.16
11440;BME280;5776;51.814;4.510;2023-06-14T08:00:34;101748.28;;;20.26;70.26
11440;BME280;5776;51.814;4.510;2023-06-14T08:03:00;101743.25;;;20.28;70.67
11440;BME280;5776;51.814;4.510;2023-06-14T08:05:27;101751.69;;;20.32;69.92
11440;BME280;5776;51.814;4.510;2023-06-14T08:07:54;101748.25;;;20.35;69.99
11440;BME280;5776;51.814;4.510;2023-06-14T08:10:21;101752.28;;;20.37;70.38
11440;BME280;5776;51.814;4.510;2023-06-14T08:12:47;101755.19;;;20.41;70.79
11440;BME280;5776;51.814;4.510;2023-06-14T08:15:16;101750.94;;;20.43;70.37
11440;BME280;5776;51.814;4.510;2023-06-14T08:17:45;101755.78;;;20.46;70.11
11440;BME280;5776;51.814;4.510;2023-06-14T08:20:12;101754.00;;;20.50;70.48
11440;BME280;5776;51.814;4.510;2023-06-14T08:22:39;101753.66;;;20.52;69.87
11440;BME280;5776;51.814;4.510;2023-06-14T08:25:08;101762.09;;;20.56;70.24
11440;BME280;5776;51.814;4.510;2023-06-14T08:27:35;101762.28;;;20.59;70.20
11440;BME280;5776;51.814;4.510;2023-06-14T08:30:01;101759.16;;;20.61;69.95
11440;BME280;5776;51.814;4.510;2023-06-14T08:32:28;101758.97;;;20.66;70.26
11440;BME280;5776;51.814;4.510;2023-06-14T08:34:53;101749.56;;;20.67;69.66
11440;BME280;5776;51.814;4.510;2023-06-14T08:37:19;101759.56;;;20.71;70.12
11440;BME280;5776;51.814;4.510;2023-06-14T08:39:45;101746.25;;;20.74;70.39
11440;BME280;5776;51.814;4.510;2023-06-14T08:42:12;101749.16;;;20.77;69.76
11440;BME280;5776;51.814;4.510;2023-06-14T08:44:39;101749.28;;;20.81;70.14
11440;BME280;5776;51.814;4.510;2023-06-14T08:47:07;101757.72;;;20.84;70.28
11440;BME280;5776;51.814;4.510;2023-06-14T08:49:36;101751.53;;;20.87;69.85
11440;BME280;5776;51.814;4.510;2023-06-14T08:52:05;101754.41;;;20.91;70.22
11440;BME280;5776;51.814;4.510;2023-06-14T08:54:33;101750.16;;;20.93;69.33
11440;BME280;5776;51.814;4.510;2023-06-14T08:57:02;101751.13;;;20.98;70.06
11440;BME280;5776;51.814;4.510;2023-06-14T08:59:30;101757.13;;;21.00;69.50
11440;BME280;5776;51.814;4.510;2023-06-14T09:01:59;101749.75;;;21.04;69.08
11440;BME280;5776;51.814;4.510;2023-06-14T09:04:26;101751.88;;;21.07;69.94
11440;BME280;5776;51.814;4.510;2023-06-14T09:06:58;101753.94;;;21.10;69.82
11440;BME280;5776;51.814;4.510;2023-06-14T09:09:24;101748.53;;;21.13;69.72
11440;BME280;5776;51.814;4.510;2023-06-14T09:11:52;101762.50;;;21.17;69.06
11440;BME280;5776;51.814;4.510;2023-06-14T09:14:18;101759.06;;;21.20;69.79
11440;BME280;5776;51.814;4.510;2023-06-14T09:16:45;101756.41;;;21.24;68.87
11440;BME280;5776;51.814;4.510;2023-06-14T09:19:21;101762.88;;;21.28;69.53
11440;BME280;5776;51.814;4.510;2023-06-14T09:21:48;101767.41;;;21.32;69.22
11440;BME280;5776;51.814;4.510;2023-06-14T09:24:14;101763.63;;;21.37;68.89
11440;BME280;5776;51.814;4.510;2023-06-14T09:26:40;101767.69;;;21.40;69.46
11440;BME280;5776;51.814;4.510;2023-06-14T09:29:07;101775.78;;;21.45;69.22
11440;BME280;5776;51.814;4.510;2023-06-14T09:31:35;101773.94;;;21.49;68.73
11440;BME280;5776;51.814;4.510;2023-06-14T09:34:02;101781.56;;;21.52;69.16
11440;BME280;5776;51.814;4.510;2023-06-14T09:36:31;101774.19;;;21.56;68.66
11440;BME280;5776;51.814;4.510;2023-06-14T09:39:02;101779.84;;;21.60;68.52
11440;BME280;5776;51.814;4.510;2023-06-14T09:41:39;101778.81;;;21.64;68.93
11440;BME280;5776;51.814;4.510;2023-06-14T09:44:06;101783.69;;;21.67;68.80
11440;BME280;5776;51.814;4.510;2023-06-14T09:46:33;101783.00;;;21.70;68.25
11440;BME280;5776;51.814;4.510;2023-06-14T09:49:00;101788.63;;;21.74;68.57
11440;BME280;5776;51.814;4.510;2023-06-14T09:51:27;101781.28;;;21.78;68.59
11440;BME280;5776;51.814;4.510;2023-06-14T09:54:02;101785.31;;;21.81;67.50
11440;BME280;5776;51.814;4.510;2023-06-14T09:56:36;101783.50;;;21.85;68.07
11440;BME280;5776;51.814;4.510;2023-06-14T09:59:05;101777.28;;;21.88;67.72
11440;BME280;5776;51.814;4.510;2023-06-14T10:01:31;101775.78;;;21.90;67.70
11440;BME280;5776;51.814;4.510;2023-06-14T10:04:02;101787.44;;;21.96;68.23
11440;BME280;5776;51.814;4.510;2023-06-14T10:06:29;101782.38;;;21.98;68.34
11440;BME280;5776;51.814;4.510;2023-06-14T10:08:57;101781.69;;;22.01;67.88
11440;BME280;5776;51.814;4.510;2023-06-14T10:11:26;101780.97;;;22.04;67.73
11440;BME280;5776;51.814;4.510;2023-06-14T10:13:53;101783.53;;;22.09;67.68
11440;BME280;5776;51.814;4.510;2023-06-14T10:16:24;101780.91;;;22.13;67.06
11440;BME280;5776;51.814;4.510;2023-06-14T10:24:19;101784.03;;;22.24;65.46
11440;BME280;5776;51.814;4.510;2023-06-14T10:26:51;101776.22;;;22.26;64.93
11440;BME280;5776;51.814;4.510;2023-06-14T10:29:18;101775.19;;;22.30;65.45
11440;BME280;5776;51.814;4.510;2023-06-14T10:31:45;101777.25;;;22.33;64.60
11440;BME280;5776;51.814;4.510;2023-06-14T10:34:25;101773.31;;;22.34;64.73
11440;BME280;5776;51.814;4.510;2023-06-14T10:37:11;101783.34;;;22.39;65.21
11440;BME280;5776;51.814;4.510;2023-06-14T10:39:43;101768.81;;;22.42;65.37
11440;BME280;5776;51.814;4.510;2023-06-14T10:42:12;101770.91;;;22.45;65.09
11440;BME280;5776;51.814;4.510;2023-06-14T10:44:42;101770.22;;;22.48;65.22
11440;BME280;5776;51.814;4.510;2023-06-14T10:47:27;101776.22;;;22.50;65.42
11440;BME280;5776;51.814;4.510;2023-06-14T10:50:06;101778.28;;;22.53;64.97
11440;BME280;5776;51.814;4.510;2023-06-14T10:52:40;101775.63;;;22.57;64.74
11440;BME280;5776;51.814;4.510;2023-06-14T10:55:17;101776.44;;;22.57;64.76
11440;BME280;5776;51.814;4.510;2023-06-14T10:57:54;101774.13;;;22.59;65.04
11440;BME280;5776;51.814;4.510;2023-06-14T11:00:27;101771.81;;;22.61;64.95
11440;BME280;5776;51.814;4.510;2023-06-14T11:05:58;101775.03;;;22.63;65.02
11440;BME280;5776;51.814;4.510;2023-06-14T11:08:33;101771.25;;;22.68;64.88
11440;BME280;5776;51.814;4.510;2023-06-14T11:11:06;101773.63;;;22.70;64.86
11440;BME280;5776;51.814;4.510;2023-06-14T11:13:32;101769.72;;;22.71;64.66
11440;BME280;5776;51.814;4.510;2023-06-14T11:15:59;101780.47;;;22.72;65.14
11440;BME280;5776;51.814;4.510;2023-06-14T11:18:25;101769.81;;;22.74;65.25
11440;BME280;5776;51.814;4.510;2023-06-14T11:20:53;101765.13;;;22.75;65.13
11440;BME280;5776;51.814;4.510;2023-06-14T11:23:19;101774.69;;;22.77;65.33
11440;BME280;5776;51.814;4.510;2023-06-14T11:25:52;101770.41;;;22.80;65.02
11440;BME280;5776;51.814;4.510;2023-06-14T11:28:18;101768.44;;;22.80;65.50
11440;BME280;5776;51.814;4.510;2023-06-14T11:30:48;101761.75;;;22.81;65.36
11440;BME280;5776;51.814;4.510;2023-06-14T11:33:18;101771.31;;;22.84;65.20
11440;BME280;5776;51.814;4.510;2023-06-14T11:35:44;101775.72;;;22.85;64.68
11440;BME280;5776;51.814;4.510;2023-06-14T11:38:11;101767.84;;;22.87;64.87
11440;BME280;5776;51.814;4.510;2023-06-14T11:40:38;101767.50;;;22.89;64.85
11440;BME280;5776;51.814;4.510;2023-06-14T11:43:04;101770.72;;;22.91;64.56
11440;BME280;5776;51.814;4.510;2023-06-14T11:45:30;101759.28;;;22.92;65.00
11440;BME280;5776;51.814;4.510;2023-06-14T11:47:57;101764.16;;;22.95;64.56
11440;BME280;5776;51.814;4.510;2023-06-14T11:50:23;101760.22;;;22.96;64.94
11440;BME280;5776;51.814;4.510;2023-06-14T11:52:56;101766.25;;;22.98;64.64
11440;BME280;5776;51.814;4.510;2023-06-14T11:55:24;101766.34;;;23.02;64.99
11440;BME280;5776;51.814;4.510;2023-06-14T11:57:50;101771.19;;;23.05;65.36
11440;BME280;5776;51.814;4.510;2023-06-14T12:00:17;101777.16;;;23.07;65.05
11440;BME280;5776;51.814;4.510;2023-06-14T12:02:51;101775.66;;;23.10;64.87
11440;BME280;5776;51.814;4.510;2023-06-14T12:05:21;101774.16;;;23.12;64.58
11440;BME280;5776;51.814;4.510;2023-06-14T12:07:47;101764.69;;;23.13;64.28
11440;BME280;5776;51.814;4.510;2023-06-14T12:10:14;101776.25;;;23.15;63.81
11440;BME280;5776;51.814;4.510;2023-06-14T12:12:41;101757.28;;;23.17;63.32
11440;BME280;5776;51.814;4.510;2023-06-14T12:15:08;101766.84;;;23.20;63.48
11440;BME280;5776;51.814;4.510;2023-06-14T12:17:37;101760.97;;;23.21;63.03
11440;BME280;5776;51.814;4.510;2023-06-14T12:20:10;101767.78;;;23.24;63.36
11440;BME280;5776;51.814;4.510;2023-06-14T12:22:56;101759.91;;;23.26;62.54
11440;BME280;5776;51.814;4.510;2023-06-14T12:25:33;101761.97;;;23.29;61.65
11440;BME280;5776;51.814;4.510;2023-06-14T12:28:05;101766.00;;;23.32;61.72
11440;BME280;5776;51.814;4.510;2023-06-14T12:30:32;101765.28;;;23.35;61.28
11440;BME280;5776;51.814;4.510;2023-06-14T12:32:58;101772.09;;;23.37;61.15
11440;BME280;5776;51.814;4.510;2023-06-14T12:35:24;101763.91;;;23.41;61.95
11440;BME280;5776;51.814;4.510;2023-06-14T12:37:50;101767.13;;;23.43;61.86
11440;BME280;5776;51.814;4.510;2023-06-14T12:40:16;101757.31;;;23.45;62.16
11440;BME280;5776;51.814;4.510;2023-06-14T12:42:42;101753.00;;;23.48;62.30
11440;BME280;5776;51.814;4.510;2023-06-14T12:45:08;101757.03;;;23.50;62.59
11440;BME280;5776;51.814;4.510;2023-06-14T12:47:35;101760.28;;;23.53;62.56
11440;BME280;5776;51.814;4.510;2023-06-14T12:50:01;101769.00;;;23.55;62.92
11440;BME280;5776;51.814;4.510;2023-06-14T12:52:28;101753.63;;;23.57;62.46
11440;BME280;5776;51.814;4.510;2023-06-14T12:54:53;101761.28;;;23.60;62.63
11440;BME280;5776;51.814;4.510;2023-06-14T12:57:19;101763.66;;;23.62;62.64
11440;BME280;5776;51.814;4.510;2023-06-14T12:59:45;101755.81;;;23.64;62.68
11440;BME280;5776;51.814;4.510;2023-06-14T13:02:12;101745.19;;;23.66;63.06
11440;BME280;5776;51.814;4.510;2023-06-14T13:04:38;101759.13;;;23.69;63.02
11440;BME280;5776;51.814;4.510;2023-06-14T13:07:05;101767.91;;;23.71;63.01
11440;BME280;5776;51.814;4.510;2023-06-14T13:09:31;101771.94;;;23.74;63.78
11440;BME280;5776;51.814;4.510;2023-06-14T13:11:56;101770.44;;;23.77;63.52
11440;BME280;5776;51.814;4.510;2023-06-14T13:14:22;101768.91;;;23.79;62.88
11440;BME280;5776;51.814;4.510;2023-06-14T13:16:48;101757.94;;;23.83;62.06